sensor_id;sensor_type;location;lat;lon;timestamp;pressure;altitude;pressure_sealevel;temperature;humidity
63321;BME280;49449;48.800;9.534;2023-04-27T00:01:14;98660.25;;;9.51;36.42
63321;BME280;49449;48.800;9.534;2023-04-27T00:03:43;98652.97;;;9.46;36.78
63321;BME280;49449;48.800;9.534;2023-04-27T00:06:11;98657.44;;;9.46;36.85
63321;BME280;49449;48.800;9.534;2023-04-27T00:08:39;98652.47;;;9.38;36.71
63321;BME280;49449;48.800;9.534;2023-04-27T00:11:07;98653.28;;;9.38;36.81
63321;BME280;49449;48.800;9.534;2023-04-27T00:13:35;98653.47;;;9.37;36.90
63321;BME280;49449;48.800;9.534;2023-04-27T00:16:03;98651.47;;;9.32;36.97
63321;BME280;49449;48.800;9.534;2023-04-27T00:18:31;98651.94;;;9.29;36.85
63321;BME280;49449;48.800;9.534;2023-04-27T00:21:00;98645.41;;;9.32;36.78
63321;BME280;49449;48.800;9.534;2023-04-27T00:23:28;98646.81;;;9.34;36.71
63321;BME280;49449;48.800;9.534;2023-04-27T00:25:56;98645.56;;;9.37;36.71
63321;BME280;49449;48.800;9.534;2023-04-27T00:28:23;98643.16;;;9.35;36.96
63321;BME280;49449;48.800;9.534;2023-04-27T00:30:51;98641.56;;;9.34;37.03
63321;BME280;49449;48.800;9.534;2023-04-27T00:33:20;98640.72;;;9.34;36.86
63321;BME280;49449;48.800;9.534;2023-04-27T00:35:48;98639.72;;;9.35;37.18
63321;BME280;49449;48.800;9.534;2023-04-27T00:38:17;98636.28;;;9.34;37.05
63321;BME280;49449;48.800;9.534;2023-04-27T00:40:44;98631.22;;;9.33;37.01
63321;BME280;49449;48.800;9.534;2023-04-27T00:43:12;98630.38;;;9.32;36.98
63321;BME280;49449;48.800;9.534;2023-04-27T00:45:41;98631.44;;;9.31;37.22
63321;BME280;49449;48.800;9.534;2023-04-27T00:48:10;98628.78;;;9.31;37.17
63321;BME280;49449;48.800;9.534;2023-04-27T00:50:38;98625.56;;;9.29;37.12
63321;BME280;49449;48.800;9.534;2023-04-27T00:53:06;98625.78;;;9.27;37.11
63321;BME280;49449;48.800;9.534;2023-04-27T00:55:36;98630.00;;;9.28;37.00
63321;BME280;49449;48.800;9.534;2023-04-27T00:58:03;98629.66;;;9.25;37.15
63321;BME280;49449;48.800;9.534;2023-04-27T01:00:31;98632.50;;;9.23;37.23
63321;BME280;49449;48.800;9.534;2023-04-27T01:03:02;98628.03;;;9.24;37.03
63321;BME280;49449;48.800;9.534;2023-04-27T01:05:30;98630.91;;;9.22;37.27
63321;BME280;49449;48.800;9.534;2023-04-27T01:07:58;98634.34;;;9.23;37.30
63321;BME280;49449;48.800;9.534;2023-04-27T01:10:26;98629.28;;;9.21;37.42
63321;BME280;49449;48.800;9.534;2023-04-27T01:12:55;98629.47;;;9.20;37.38
63321;BME280;49449;48.800;9.534;2023-04-27T01:15:22;98630.94;;;9.16;37.49
63321;BME280;49449;48.800;9.534;2023-04-27T01:17:56;98633.59;;;9.16;37.43
63321;BME280;49449;48.800;9.534;2023-04-27T01:20:24;98637.69;;;9.11;37.71
63321;BME280;49449;48.800;9.534;2023-04-27T01:22:55;98627.34;;;9.10;37.80
63321;BME280;49449;48.800;9.534;2023-04-27T01:25:25;98632.41;;;9.11;37.88
63321;BME280;49449;48.800;9.534;2023-04-27T01:27:52;98634.66;;;9.08;37.71
63321;BME280;49449;48.800;9.534;2023-04-27T01:30:20;98638.53;;;9.05;37.77
63321;BME280;49449;48.800;9.534;2023-04-27T01:32:48;98629.44;;;9.01;37.80
63321;BME280;49449;48.800;9.534;2023-04-27T01:35:16;98630.91;;;8.97;38.00
63321;BME280;49449;48.800;9.534;2023-04-27T01:37:44;98631.13;;;8.96;37.88
63321;BME280;49449;48.800;9.534;2023-04-27T01:40:12;98626.44;;;8.98;37.84
63321;BME280;49449;48.800;9.534;2023-04-27T01:42:41;98626.66;;;8.96;37.93
63321;BME280;49449;48.800;9.534;2023-04-27T01:45:10;98625.47;;;8.92;38.25
63321;BME280;49449;48.800;9.534;2023-04-27T01:47:38;98632.34;;;8.93;38.00
63321;BME280;49449;48.800;9.534;2023-04-27T01:50:06;98639.06;;;8.89;38.14
63321;BME280;49449;48.800;9.534;2023-04-27T01:52:34;98625.31;;;8.87;38.13
63321;BME280;49449;48.800;9.534;2023-04-27T01:55:02;98639.91;;;8.83;38.10
63321;BME280;49449;48.800;9.534;2023-04-27T01:57:30;98641.16;;;8.80;37.99
63321;BME280;49449;48.800;9.534;2023-04-27T02:00:00;98645.41;;;8.81;38.25
63321;BME280;49449;48.800;9.534;2023-04-27T02:02:27;98644.78;;;8.79;38.11
63321;BME280;49449;48.800;9.534;2023-04-27T02:04:55;98647.66;;;8.78;38.16
63321;BME280;49449;48.800;9.534;2023-04-27T02:07:23;98639.97;;;8.76;38.09
63321;BME280;49449;48.800;9.534;2023-04-27T02:09:51;98654.31;;;8.73;38.24
63321;BME280;49449;48.800;9.534;2023-04-27T02:12:18;98650.31;;;8.71;38.36
63321;BME280;49449;48.800;9.534;2023-04-27T02:14:46;98653.16;;;8.69;38.50
63321;BME280;49449;48.800;9.534;2023-04-27T02:17:15;98650.31;;;8.71;38.54
63321;BME280;49449;48.800;9.534;2023-04-27T02:19:43;98649.91;;;8.67;38.62
63321;BME280;49449;48.800;9.534;2023-04-27T02:22:10;98644.06;;;8.65;38.52
63321;BME280;49449;48.800;9.534;2023-04-27T02:24:38;98655.59;;;8.64;38.65
63321;BME280;49449;48.800;9.534;2023-04-27T02:27:06;98652.59;;;8.61;38.78
63321;BME280;49449;48.800;9.534;2023-04-27T02:29:34;98649.94;;;8.61;38.80
63321;BME280;49449;48.800;9.534;2023-04-27T02:32:04;98660.91;;;8.58;38.50
63321;BME280;49449;48.800;9.534;2023-04-27T02:34:33;98662.34;;;8.53;38.71
63321;BME280;49449;48.800;9.534;2023-04-27T02:37:01;98656.69;;;8.50;38.83
63321;BME280;49449;48.800;9.534;2023-04-27T02:39:29;98664.00;;;8.48;38.69
63321;BME280;49449;48.800;9.534;2023-04-27T02:41:56;98661.97;;;8.50;38.56
63321;BME280;49449;48.800;9.534;2023-04-27T02:44:24;98671.47;;;8.51;38.32
63321;BME280;49449;48.800;9.534;2023-04-27T02:46:52;98662.75;;;8.50;38.40
63321;BME280;49449;48.800;9.534;2023-04-27T02:49:20;98664.81;;;8.48;38.56
63321;BME280;49449;48.800;9.534;2023-04-27T02:51:49;98666.66;;;8.48;38.28
63321;BME280;49449;48.800;9.534;2023-04-27T02:54:16;98661.00;;;8.44;38.35
63321;BME280;49449;48.800;9.534;2023-04-27T02:56:44;98670.88;;;8.49;38.22
63321;BME280;49449;48.800;9.534;2023-04-27T02:59:12;98673.72;;;8.47;38.31
63321;BME280;49449;48.800;9.534;2023-04-27T03:01:40;98674.94;;;8.45;38.26
63321;BME280;49449;48.800;9.534;2023-04-27T03:04:08;98673.13;;;8.45;38.30
63321;BME280;49449;48.800;9.534;2023-04-27T03:06:36;98679.41;;;8.44;38.59
63321;BME280;49449;48.800;9.534;2023-04-27T03:09:05;98677.78;;;8.43;38.31
63321;BME280;49449;48.800;9.534;2023-04-27T03:11:32;98674.56;;;8.41;38.23
63321;BME280;49449;48.800;9.534;2023-04-27T03:14:01;98670.31;;;8.40;37.90
63321;BME280;49449;48.800;9.534;2023-04-27T03:16:30;98670.50;;;8.39;38.06
63321;BME280;49449;48.800;9.534;2023-04-27T03:18:58;98671.75;;;8.36;38.04
63321;BME280;49449;48.800;9.534;2023-04-27T03:21:26;98674.19;;;8.38;38.14
63321;BME280;49449;48.800;9.534;2023-04-27T03:23:54;98676.03;;;8.30;40.02
63321;BME280;49449;48.800;9.534;2023-04-27T03:26:23;98678.22;;;8.33;38.72
63321;BME280;49449;48.800;9.534;2023-04-27T03:28:51;98674.00;;;8.32;38.45
63321;BME280;49449;48.800;9.534;2023-04-27T03:31:19;98674.59;;;8.34;38.46
63321;BME280;49449;48.800;9.534;2023-04-27T03:33:47;98680.06;;;8.33;38.44
63321;BME280;49449;48.800;9.534;2023-04-27T03:36:15;98678.22;;;8.33;38.76
63321;BME280;49449;48.800;9.534;2023-04-27T03:38:42;98689.59;;;8.34;38.70
63321;BME280;49449;48.800;9.534;2023-04-27T03:41:11;98679.06;;;8.34;38.55
63321;BME280;49449;48.800;9.534;2023-04-27T03:43:40;98682.50;;;8.34;38.59
63321;BME280;49449;48.800;9.534;2023-04-27T03:46:08;98674.38;;;8.36;38.66
63321;BME280;49449;48.800;9.534;2023-04-27T03:48:36;98667.69;;;8.33;38.81
63321;BME280;49449;48.800;9.534;2023-04-27T03:51:04;98675.84;;;8.32;38.91
63321;BME280;49449;48.800;9.534;2023-04-27T03:53:32;98680.47;;;8.30;38.93
63321;BME280;49449;48.800;9.534;2023-04-27T03:56:00;98677.03;;;8.29;38.61
63321;BME280;49449;48.800;9.534;2023-04-27T03:58:28;98679.66;;;8.29;38.77
63321;BME280;49449;48.800;9.534;2023-04-27T04:00:57;98676.25;;;8.29;38.71
63321;BME280;49449;48.800;9.534;2023-04-27T04:03:25;98684.53;;;8.26;38.74
63321;BME280;49449;48.800;9.534;2023-04-27T04:05:53;98682.72;;;8.26;38.74
63321;BME280;49449;48.800;9.534;2023-04-27T04:08:21;98680.53;;;8.23;38.84
63321;BME280;49449;48.800;9.534;2023-04-27T04:10:48;98681.91;;;8.26;38.96
63321;BME280;49449;48.800;9.534;2023-04-27T04:13:16;98684.53;;;8.26;38.86
63321;BME280;49449;48.800;9.534;2023-04-27T04:15:44;98686.59;;;8.24;39.07
63321;BME280;49449;48.800;9.534;2023-04-27T04:18:13;98692.84;;;8.29;39.04
63321;BME280;49449;48.800;9.534;2023-04-27T04:20:41;98688.63;;;8.22;39.06
63321;BME280;49449;48.800;9.534;2023-04-27T04:23:09;98686.78;;;8.22;39.01
63321;BME280;49449;48.800;9.534;2023-04-27T04:25:37;98678.47;;;8.25;38.94
63321;BME280;49449;48.800;9.534;2023-04-27T04:28:05;98685.97;;;8.28;39.09
63321;BME280;49449;48.800;9.534;2023-04-27T04:30:33;98691.00;;;8.30;38.85
63321;BME280;49449;48.800;9.534;2023-04-27T04:33:01;98690.41;;;8.28;39.09
63321;BME280;49449;48.800;9.534;2023-04-27T04:35:30;98687.97;;;8.26;39.14
63321;BME280;49449;48.800;9.534;2023-04-27T04:37:59;98691.25;;;8.28;39.10
63321;BME280;49449;48.800;9.534;2023-04-27T04:40:27;98689.59;;;8.27;39.32
63321;BME280;49449;48.800;9.534;2023-04-27T04:42:55;98697.50;;;8.27;39.42
63321;BME280;49449;48.800;9.534;2023-04-27T04:45:22;98699.72;;;8.30;39.20
63321;BME280;49449;48.800;9.534;2023-04-27T04:47:50;98703.97;;;8.31;39.22
63321;BME280;49449;48.800;9.534;2023-04-27T04:50:20;98705.38;;;8.34;39.43
63321;BME280;49449;48.800;9.534;2023-04-27T04:52:50;98711.44;;;8.34;39.41
63321;BME280;49449;48.800;9.534;2023-04-27T04:55:18;98709.41;;;8.36;39.51
63321;BME280;49449;48.800;9.534;2023-04-27T04:57:45;98708.00;;;8.41;39.20
63321;BME280;49449;48.800;9.534;2023-04-27T05:00:13;98708.41;;;8.38;39.25
63321;BME280;49449;48.800;9.534;2023-04-27T05:02:41;98705.78;;;8.38;39.13
63321;BME280;49449;48.800;9.534;2023-04-27T05:05:09;98708.00;;;8.41;39.13
63321;BME280;49449;48.800;9.534;2023-04-27T05:07:37;98709.19;;;8.45;39.10
63321;BME280;49449;48.800;9.534;2023-04-27T05:10:06;98709.78;;;8.47;38.97
63321;BME280;49449;48.800;9.534;2023-04-27T05:12:34;98712.41;;;8.47;39.35
63321;BME280;49449;48.800;9.534;2023-04-27T05:15:02;98712.41;;;8.47;39.24
63321;BME280;49449;48.800;9.534;2023-04-27T05:17:30;98718.28;;;8.49;39.22
63321;BME280;49449;48.800;9.534;2023-04-27T05:19:58;98722.53;;;8.50;39.32
63321;BME280;49449;48.800;9.534;2023-04-27T05:22:26;98716.03;;;8.52;39.15
63321;BME280;49449;48.800;9.534;2023-04-27T05:24:54;98717.06;;;8.51;39.04
63321;BME280;49449;48.800;9.534;2023-04-27T05:27:24;98701.84;;;8.53;39.22
63321;BME280;49449;48.800;9.534;2023-04-27T05:29:51;98712.97;;;8.55;39.20
63321;BME280;49449;48.800;9.534;2023-04-27T05:32:19;98707.72;;;8.55;39.22
63321;BME280;49449;48.800;9.534;2023-04-27T05:34:47;98713.56;;;8.58;39.22
63321;BME280;49449;48.800;9.534;2023-04-27T05:37:15;98718.22;;;8.62;39.40
63321;BME280;49449;48.800;9.534;2023-04-27T05:39:42;98718.59;;;8.66;39.37
63321;BME280;49449;48.800;9.534;2023-04-27T05:42:10;98714.94;;;8.67;39.40
63321;BME280;49449;48.800;9.534;2023-04-27T05:44:39;98717.97;;;8.70;39.29
63321;BME280;49449;48.800;9.534;2023-04-27T05:47:07;98719.19;;;8.75;39.24
63321;BME280;49449;48.800;9.534;2023-04-27T05:49:35;98716.97;;;8.78;39.08
63321;BME280;49449;48.800;9.534;2023-04-27T05:52:03;98710.44;;;8.81;39.27
63321;BME280;49449;48.800;9.534;2023-04-27T05:54:31;98719.97;;;8.82;39.35
63321;BME280;49449;48.800;9.534;2023-04-27T05:56:58;98722.19;;;8.85;39.19
63321;BME280;49449;48.800;9.534;2023-04-27T05:59:26;98722.97;;;8.92;39.23
63321;BME280;49449;48.800;9.534;2023-04-27T06:01:56;98730.00;;;8.98;39.19
63321;BME280;49449;48.800;9.534;2023-04-27T06:04:23;98734.06;;;9.01;39.21
63321;BME280;49449;48.800;9.534;2023-04-27T06:06:51;98737.47;;;9.08;39.44
63321;BME280;49449;48.800;9.534;2023-04-27T06:09:19;98732.56;;;9.11;39.23
63321;BME280;49449;48.800;9.534;2023-04-27T06:11:47;98731.31;;;9.14;39.06
63321;BME280;49449;48.800;9.534;2023-04-27T06:14:15;98740.19;;;9.20;38.85
63321;BME280;49449;48.800;9.534;2023-04-27T06:16:43;98742.00;;;9.26;38.32
63321;BME280;49449;48.800;9.534;2023-04-27T06:19:12;98749.25;;;9.30;38.00
63321;BME280;49449;48.800;9.534;2023-04-27T06:21:40;98757.56;;;9.34;38.07
63321;BME280;49449;48.800;9.534;2023-04-27T06:24:07;98755.31;;;9.38;38.05
63321;BME280;49449;48.800;9.534;2023-04-27T06:26:35;98752.59;;;9.44;37.88
63321;BME280;49449;48.800;9.534;2023-04-27T06:29:03;98753.06;;;9.41;37.74
63321;BME280;49449;48.800;9.534;2023-04-27T06:31:33;98758.31;;;9.41;37.82
63321;BME280;49449;48.800;9.534;2023-04-27T06:34:01;98751.16;;;9.48;37.76
63321;BME280;49449;48.800;9.534;2023-04-27T06:36:31;98754.56;;;9.56;38.05
63321;BME280;49449;48.800;9.534;2023-04-27T06:38:59;98746.59;;;9.62;38.07
63321;BME280;49449;48.800;9.534;2023-04-27T06:41:27;98745.34;;;9.65;37.95
63321;BME280;49449;48.800;9.534;2023-04-27T06:43:54;98741.41;;;9.74;38.19
63321;BME280;49449;48.800;9.534;2023-04-27T06:46:23;98741.94;;;9.83;37.92
63321;BME280;49449;48.800;9.534;2023-04-27T06:48:51;98742.28;;;9.93;37.76
63321;BME280;49449;48.800;9.534;2023-04-27T06:51:19;98737.31;;;10.03;37.32
63321;BME280;49449;48.800;9.534;2023-04-27T06:53:49;98734.13;;;10.13;37.19
63321;BME280;49449;48.800;9.534;2023-04-27T06:56:17;98729.84;;;10.19;36.88
63321;BME280;49449;48.800;9.534;2023-04-27T06:58:45;98728.50;;;10.28;36.58
63321;BME280;49449;48.800;9.534;2023-04-27T07:01:13;98731.28;;;10.33;36.39
63321;BME280;49449;48.800;9.534;2023-04-27T07:03:41;98736.84;;;10.43;36.23
63321;BME280;49449;48.800;9.534;2023-04-27T07:06:08;98735.16;;;10.49;36.51
63321;BME280;49449;48.800;9.534;2023-04-27T07:08:37;98740.75;;;10.59;35.92
63321;BME280;49449;48.800;9.534;2023-04-27T07:11:06;98744.69;;;10.69;35.86
63321;BME280;49449;48.800;9.534;2023-04-27T07:13:33;98742.41;;;10.72;35.64
63321;BME280;49449;48.800;9.534;2023-04-27T07:16:01;98745.75;;;10.79;35.57
63321;BME280;49449;48.800;9.534;2023-04-27T07:18:29;98749.16;;;10.87;35.33
63321;BME280;49449;48.800;9.534;2023-04-27T07:20:57;98747.31;;;10.87;35.27
63321;BME280;49449;48.800;9.534;2023-04-27T07:23:25;98736.19;;;10.97;35.34
63321;BME280;49449;48.800;9.534;2023-04-27T07:25:52;98743.69;;;11.12;34.84
63321;BME280;49449;48.800;9.534;2023-04-27T07:28:21;98751.09;;;11.22;34.87
63321;BME280;49449;48.800;9.534;2023-04-27T07:30:49;98744.66;;;11.29;34.71
63321;BME280;49449;48.800;9.534;2023-04-27T07:33:17;98747.00;;;11.37;34.36
63321;BME280;49449;48.800;9.534;2023-04-27T07:35:45;98738.47;;;11.47;34.08
63321;BME280;49449;48.800;9.534;2023-04-27T07:38:13;98742.88;;;11.53;33.45
63321;BME280;49449;48.800;9.534;2023-04-27T07:40:42;98739.31;;;11.60;33.69
63321;BME280;49449;48.800;9.534;2023-04-27T07:43:10;98740.00;;;11.67;34.04
63321;BME280;49449;48.800;9.534;2023-04-27T07:45:40;98730.56;;;11.71;33.66
63321;BME280;49449;48.800;9.534;2023-04-27T07:48:07;98736.72;;;11.83;33.45
63321;BME280;49449;48.800;9.534;2023-04-27T07:50:35;98725.88;;;11.97;32.64
63321;BME280;49449;48.800;9.534;2023-04-27T07:53:03;98731.84;;;12.04;33.35
63321;BME280;49449;48.800;9.534;2023-04-27T07:55:31;98729.84;;;12.23;33.47
63321;BME280;49449;48.800;9.534;2023-04-27T07:57:59;98732.25;;;12.36;33.53
63321;BME280;49449;48.800;9.534;2023-04-27T08:00:27;98733.63;;;12.39;33.10
63321;BME280;49449;48.800;9.534;2023-04-27T08:02:56;98731.31;;;12.71;32.71
63321;BME280;49449;48.800;9.534;2023-04-27T08:05:24;98738.75;;;12.98;31.93
63321;BME280;49449;48.800;9.534;2023-04-27T08:07:51;98735.13;;;13.04;31.12
63321;BME280;49449;48.800;9.534;2023-04-27T08:10:20;98733.28;;;13.04;31.57
63321;BME280;49449;48.800;9.534;2023-04-27T08:12:48;98734.09;;;13.22;30.90
63321;BME280;49449;48.800;9.534;2023-04-27T08:15:16;98729.84;;;13.38;31.36
63321;BME280;49449;48.800;9.534;2023-04-27T08:17:43;98739.09;;;13.52;30.70
63321;BME280;49449;48.800;9.534;2023-04-27T08:20:13;98734.44;;;13.76;31.05
63321;BME280;49449;48.800;9.534;2023-04-27T08:22:42;98730.22;;;13.97;30.21
63321;BME280;49449;48.800;9.534;2023-04-27T08:25:10;98725.75;;;14.20;29.02
63321;BME280;49449;48.800;9.534;2023-04-27T08:27:38;98720.97;;;14.44;29.06
63321;BME280;49449;48.800;9.534;2023-04-27T08:30:07;98718.63;;;14.70;28.76
63321;BME280;49449;48.800;9.534;2023-04-27T08:32:35;98710.03;;;14.90;29.63
63321;BME280;49449;48.800;9.534;2023-04-27T08:35:03;98708.69;;;14.87;28.55
63321;BME280;49449;48.800;9.534;2023-04-27T08:37:32;98696.13;;;15.10;27.90
63321;BME280;49449;48.800;9.534;2023-04-27T08:40:03;98701.09;;;15.28;27.13
63321;BME280;49449;48.800;9.534;2023-04-27T08:42:31;98694.91;;;15.23;26.93
63321;BME280;49449;48.800;9.534;2023-04-27T08:44:59;98698.00;;;15.14;26.49
63321;BME280;49449;48.800;9.534;2023-04-27T08:47:26;98695.13;;;15.53;24.96
63321;BME280;49449;48.800;9.534;2023-04-27T08:50:05;98691.28;;;15.71;24.98
63321;BME280;49449;48.800;9.534;2023-04-27T08:52:36;98693.94;;;15.71;24.83
63321;BME280;49449;48.800;9.534;2023-04-27T08:55:05;98679.31;;;15.79;25.61
63321;BME280;49449;48.800;9.534;2023-04-27T08:57:33;98681.25;;;15.94;25.22
63321;BME280;49449;48.800;9.534;2023-04-27T09:00:02;98684.06;;;15.72;25.20
63321;BME280;49449;48.800;9.534;2023-04-27T09:02:33;98683.22;;;15.61;25.44
63321;BME280;49449;48.800;9.534;2023-04-27T09:05:01;98676.06;;;15.67;24.99
63321;BME280;49449;48.800;9.534;2023-04-27T09:07:29;98679.28;;;15.74;24.28
63321;BME280;49449;48.800;9.534;2023-04-27T09:10:02;98676.44;;;15.86;24.67
63321;BME280;49449;48.800;9.534;2023-04-27T09:12:33;98678.03;;;15.92;24.12
63321;BME280;49449;48.800;9.534;2023-04-27T09:15:02;98676.03;;;16.15;23.98
63321;BME280;49449;48.800;9.534;2023-04-27T09:17:31;98673.19;;;16.32;24.08
63321;BME280;49449;48.800;9.534;2023-04-27T09:20:03;98676.94;;;16.41;23.92
63321;BME280;49449;48.800;9.534;2023-04-27T09:22:41;98676.84;;;16.20;23.57
63321;BME280;49449;48.800;9.534;2023-04-27T09:25:21;98674.72;;;16.22;23.61
63321;BME280;49449;48.800;9.534;2023-04-27T09:27:49;98668.13;;;16.35;23.92
63321;BME280;49449;48.800;9.534;2023-04-27T09:30:17;98677.19;;;16.39;23.59
63321;BME280;49449;48.800;9.534;2023-04-27T09:32:50;98679.91;;;16.55;24.15
63321;BME280;49449;48.800;9.534;2023-04-27T09:35:23;98680.22;;;16.74;24.18
63321;BME280;49449;48.800;9.534;2023-04-27T09:37:53;98683.16;;;16.93;23.43
63321;BME280;49449;48.800;9.534;2023-04-27T09:40:23;98682.66;;;17.06;23.16
63321;BME280;49449;48.800;9.534;2023-04-27T09:42:53;98692.81;;;17.09;23.27
63321;BME280;49449;48.800;9.534;2023-04-27T09:45:22;98692.00;;;17.24;23.32
63321;BME280;49449;48.800;9.534;2023-04-27T09:47:50;98678.91;;;17.33;22.51
63321;BME280;49449;48.800;9.534;2023-04-27T09:50:18;98686.13;;;17.32;22.61
63321;BME280;49449;48.800;9.534;2023-04-27T09:52:47;98683.41;;;17.48;22.87
63321;BME280;49449;48.800;9.534;2023-04-27T09:55:17;98681.59;;;17.53;22.27
63321;BME280;49449;48.800;9.534;2023-04-27T09:57:53;98666.34;;;17.59;21.79
63321;BME280;49449;48.800;9.534;2023-04-27T10:00:33;98675.41;;;17.58;21.77
63321;BME280;49449;48.800;9.534;2023-04-27T10:03:14;98663.13;;;17.62;22.63
63321;BME280;49449;48.800;9.534;2023-04-27T10:06:21;98662.28;;;17.72;22.02
63321;BME280;49449;48.800;9.534;2023-04-27T10:08:55;98666.59;;;17.73;22.03
63321;BME280;49449;48.800;9.534;2023-04-27T10:11:36;98657.94;;;17.91;22.12
63321;BME280;49449;48.800;9.534;2023-04-27T10:14:07;98652.81;;;18.05;21.96
63321;BME280;49449;48.800;9.534;2023-04-27T10:16:43;98651.50;;;18.08;21.09
63321;BME280;49449;48.800;9.534;2023-04-27T10:19:12;98663.97;;;18.23;21.46
63321;BME280;49449;48.800;9.534;2023-04-27T10:21:54;98659.97;;;18.25;21.35
63321;BME280;49449;48.800;9.534;2023-04-27T10:24:35;98660.50;;;18.27;21.73
63321;BME280;49449;48.800;9.534;2023-04-27T10:27:04;98657.28;;;18.25;22.61
63321;BME280;49449;48.800;9.534;2023-04-27T10:29:38;98657.72;;;18.43;22.34
63321;BME280;49449;48.800;9.534;2023-04-27T10:32:09;98652.38;;;18.43;20.33
63321;BME280;49449;48.800;9.534;2023-04-27T10:34:37;98658.69;;;18.07;20.67
63321;BME280;49449;48.800;9.534;2023-04-27T10:37:07;98658.63;;;18.23;20.61
63321;BME280;49449;48.800;9.534;2023-04-27T10:39:36;98648.91;;;18.42;20.87
63321;BME280;49449;48.800;9.534;2023-04-27T10:42:09;98652.53;;;18.62;22.41
63321;BME280;49449;48.800;9.534;2023-04-27T10:44:39;98648.53;;;18.64;21.60
63321;BME280;49449;48.800;9.534;2023-04-27T10:47:14;98642.53;;;18.78;21.74
63321;BME280;49449;48.800;9.534;2023-04-27T10:49:43;98644.09;;;18.84;22.35
63321;BME280;49449;48.800;9.534;2023-04-27T10:52:11;98643.91;;;18.75;22.13
63321;BME280;49449;48.800;9.534;2023-04-27T10:54:44;98640.13;;;18.76;20.80
63321;BME280;49449;48.800;9.534;2023-04-27T10:57:12;98639.56;;;18.79;20.91
63321;BME280;49449;48.800;9.534;2023-04-27T10:59:49;98630.53;;;18.75;21.58
63321;BME280;49449;48.800;9.534;2023-04-27T11:02:24;98633.88;;;18.91;21.40
63321;BME280;49449;48.800;9.534;2023-04-27T11:04:53;98633.00;;;19.01;20.73
63321;BME280;49449;48.800;9.534;2023-04-27T11:07:23;98638.66;;;18.94;18.86
63321;BME280;49449;48.800;9.534;2023-04-27T11:09:52;98636.84;;;18.45;19.90
63321;BME280;49449;48.800;9.534;2023-04-27T11:12:20;98633.44;;;18.79;19.56
63321;BME280;49449;48.800;9.534;2023-04-27T11:14:49;98626.41;;;18.88;17.44
63321;BME280;49449;48.800;9.534;2023-04-27T11:17:27;98630.69;;;18.89;18.80
63321;BME280;49449;48.800;9.534;2023-04-27T11:19:55;98631.81;;;18.78;19.19
63321;BME280;49449;48.800;9.534;2023-04-27T11:22:22;98622.34;;;18.90;20.04
63321;BME280;49449;48.800;9.534;2023-04-27T11:24:51;98622.69;;;18.84;19.40
63321;BME280;49449;48.800;9.534;2023-04-27T11:27:19;98623.59;;;18.69;18.33
63321;BME280;49449;48.800;9.534;2023-04-27T11:29:47;98624.97;;;18.66;17.50
63321;BME280;49449;48.800;9.534;2023-04-27T11:32:20;98621.56;;;18.56;18.41
63321;BME280;49449;48.800;9.534;2023-04-27T11:34:48;98618.59;;;18.57;17.95
63321;BME280;49449;48.800;9.534;2023-04-27T11:37:20;98618.88;;;18.56;19.38
63321;BME280;49449;48.800;9.534;2023-04-27T11:39:49;98620.38;;;18.72;21.27
63321;BME280;49449;48.800;9.534;2023-04-27T11:42:19;98610.53;;;18.62;20.68
63321;BME280;49449;48.800;9.534;2023-04-27T11:44:51;98616.31;;;18.74;19.83
63321;BME280;49449;48.800;9.534;2023-04-27T11:47:21;98613.09;;;18.78;21.88
63321;BME280;49449;48.800;9.534;2023-04-27T11:49:50;98620.13;;;18.68;22.31
63321;BME280;49449;48.800;9.534;2023-04-27T11:52:19;98623.31;;;18.70;21.28
63321;BME280;49449;48.800;9.534;2023-04-27T11:54:48;98619.84;;;18.70;19.70
63321;BME280;49449;48.800;9.534;2023-04-27T11:57:16;98619.78;;;18.80;21.25
63321;BME280;49449;48.800;9.534;2023-04-27T11:59:44;98620.53;;;18.86;19.69
63321;BME280;49449;48.800;9.534;2023-04-27T12:02:12;98631.03;;;18.77;19.58
63321;BME280;49449;48.800;9.534;2023-04-27T12:04:41;98630.19;;;18.82;20.35
63321;BME280;49449;48.800;9.534;2023-04-27T12:07:09;98624.03;;;18.81;20.22
63321;BME280;49449;48.800;9.534;2023-04-27T12:09:37;98623.47;;;18.84;22.33
63321;BME280;49449;48.800;9.534;2023-04-27T12:12:06;98621.94;;;18.73;20.80
63321;BME280;49449;48.800;9.534;2023-04-27T12:14:34;98613.88;;;18.44;20.47
63321;BME280;49449;48.800;9.534;2023-04-27T12:17:01;98617.28;;;18.54;20.52
63321;BME280;49449;48.800;9.534;2023-04-27T12:19:29;98617.84;;;18.46;20.12
63321;BME280;49449;48.800;9.534;2023-04-27T12:21:58;98608.53;;;18.44;20.09
63321;BME280;49449;48.800;9.534;2023-04-27T12:24:26;98606.31;;;18.56;21.79
63321;BME280;49449;48.800;9.534;2023-04-27T12:26:53;98609.25;;;18.54;22.04
63321;BME280;49449;48.800;9.534;2023-04-27T12:29:22;98606.19;;;18.71;21.74
63321;BME280;49449;48.800;9.534;2023-04-27T12:31:49;98608.88;;;18.71;22.39
63321;BME280;49449;48.800;9.534;2023-04-27T12:34:17;98609.31;;;18.84;21.25
63321;BME280;49449;48.800;9.534;2023-04-27T12:36:45;98602.63;;;18.81;21.26
63321;BME280;49449;48.800;9.534;2023-04-27T12:39:16;98601.75;;;18.91;21.62
63321;BME280;49449;48.800;9.534;2023-04-27T12:41:45;98605.78;;;18.88;22.23
63321;BME280;49449;48.800;9.534;2023-04-27T12:44:15;98595.69;;;18.80;20.79
63321;BME280;49449;48.800;9.534;2023-04-27T12:46:44;98597.38;;;18.66;20.56
63321;BME280;49449;48.800;9.534;2023-04-27T12:49:13;98597.19;;;18.57;20.33
63321;BME280;49449;48.800;9.534;2023-04-27T12:51:42;98593.75;;;18.51;19.85
63321;BME280;49449;48.800;9.534;2023-04-27T12:54:10;98594.13;;;18.40;20.98
63321;BME280;49449;48.800;9.534;2023-04-27T12:56:39;98591.38;;;18.45;20.84
63321;BME280;49449;48.800;9.534;2023-04-27T12:59:08;98586.38;;;18.38;21.71
63321;BME280;49449;48.800;9.534;2023-04-27T13:01:36;98580.81;;;18.29;21.49
63321;BME280;49449;48.800;9.534;2023-04-27T13:04:05;98587.50;;;18.27;21.44
63321;BME280;49449;48.800;9.534;2023-04-27T13:06:33;98595.25;;;18.28;21.56
63321;BME280;49449;48.800;9.534;2023-04-27T13:09:01;98588.94;;;18.04;20.72
63321;BME280;49449;48.800;9.534;2023-04-27T13:11:29;98587.28;;;18.13;21.80
63321;BME280;49449;48.800;9.534;2023-04-27T13:13:58;98581.09;;;18.23;22.27